Αναφορές METAR Αεροδρομίων

 

LGTS - THESSALONIKI - GREECE
Ενημερώθηκε: 21/10/2021 23:20
Αραιές Νεφώσεις
Αραιές Νεφώσεις
 Ανεμος από ΑΝΑ
Ανεμος: ΑΝΑ 7 km/h
Θερμοκρασία: 12°C
Σημείο Δρόσου: 11°C
Υγρασία: 94%
Βαρόμετρο: 1019 hPa
Clouds: Αραιές Νεφώσεις
Visibility: 10 km
Cloud details: Αραιές Νεφώσεις 762 m
2021/10/21 20:20 LGTS 212020Z 11004KT 9999 FEW025 12/11 Q1019 NOSIG
LGLR - LARTISA - GREECE
Ενημερώθηκε: 21/10/2021 22:50
Αίθριος
Αίθριος
 Ανεμος από calm
Ανεμος: Απνοια
Θερμοκρασία: 13°C
Σημείο Δρόσου: 11°C
Υγρασία: 88%
Βαρόμετρο: 1019 hPa
Περίληψη: Αίθριος
Visibility: greater than 10 km
2021/10/21 19:50 LGLR 211950Z 00000KT CAVOK 13/11 Q1019 BLU
 
LGKZ - KOZANI - GREECE
Ενημερώθηκε: 21/10/2021 23:20

 Ανεμος από varies
Ανεμος: varies 6 km/h
Θερμοκρασία: 10°C
Σημείο Δρόσου: 6°C
Υγρασία: 76%
Βαρόμετρο: 1020 hPa
2021/10/21 20:20 LGKZ 212020Z AUTO VRB03KT //// // ////// 10/06 Q1020 RE//
LGKV - KAVALA - GREECE
Ενημερώθηκε: 21/10/2021 23:20
Μερικώς νεφελώδης
Μερικώς νεφελώδης
 Ανεμος από Δ
Ανεμος: Δ 7 km/h
Θερμοκρασία: 14°C
Σημείο Δρόσου: 12°C
Υγρασία: 88%
Βαρόμετρο: 1019 hPa
Clouds: Μερικώς νεφελώδης
Visibility: 10 km
Cloud details: Αραιές Νεφώσεις 610 m
Μερικώς νεφελώδης 2438 m
2021/10/21 20:20 LGKV 212020Z 27004KT 9999 FEW020 SCT080 14/12 Q1019
 
LGIO - IOANNINA - GREECE
Ενημερώθηκε: 21/10/2021 23:20

 Ανεμος από varies
Ανεμος: varies 2 km/h
Θερμοκρασία: 12°C
Σημείο Δρόσου: 11°C
Υγρασία: 94%
Βαρόμετρο: 1022 hPa
2021/10/21 20:20 LGIO 212020Z AUTO VRB01KT //// // ////// 12/11 Q1022 RE//
LGBL - BOLOS - GREECE
Ενημερώθηκε: 21/10/2021 22:50
Αίθριος
Αίθριος
 Ανεμος από calm
Ανεμος: Απνοια
Θερμοκρασία: 11°C
Σημείο Δρόσου: 11°C
Υγρασία: 100%
Βαρόμετρο: 1019 hPa
Περίληψη: Αίθριος
Visibility: greater than 10 km
2021/10/21 19:50 LGBL 211950Z 00000KT CAVOK 11/11 Q1019
 
LGMT - MITILINI - GREECE
Ενημερώθηκε: 21/10/2021 23:20
Αίθριος
Αίθριος
 Ανεμος από varies
Ανεμος: varies 6 km/h
Θερμοκρασία: 13°C
Σημείο Δρόσου: 9°C
Υγρασία: 77%
Βαρόμετρο: 1021 hPa
Περίληψη: Αίθριος
Visibility: greater than 10 km
2021/10/21 20:20 LGMT 212020Z VRB03KT CAVOK 13/09 Q1021
LGAV - ATHENS - GREECE
Ενημερώθηκε: 21/10/2021 23:20
Αραιές Νεφώσεις
Αραιές Νεφώσεις
 Ανεμος από calm
Ανεμος: Απνοια
Θερμοκρασία: 17°C
Σημείο Δρόσου: 13°C
Υγρασία: 77%
Βαρόμετρο: 1021 hPa
Clouds: Αραιές Νεφώσεις
Visibility: 10 km
Cloud details: Αραιές Νεφώσεις 1067 m
2021/10/21 20:20 LGAV 212020Z 00000KT 9999 FEW035 17/13 Q1021 NOSIG
 
LGRP - RODOS - GREECE
Ενημερώθηκε: 21/10/2021 23:20
Αραιές Νεφώσεις
Αραιές Νεφώσεις
 Ανεμος από ΝΔ
Ανεμος: ΝΔ 11 km/h
Θερμοκρασία: 18°C
Σημείο Δρόσου: 13°C
Υγρασία: 73%
Βαρόμετρο: 1021 hPa
Clouds: Αραιές Νεφώσεις
Visibility: 10 km
Cloud details: Αραιές Νεφώσεις 457 m
2021/10/21 20:20 LGRP 212020Z 22006KT 9999 FEW015 18/13 Q1021 NOSIG
LGIR - HRAKLIO/KRITI - GREECE
Ενημερώθηκε: 21/10/2021 23:20
Αραιές Νεφώσεις
Αραιές Νεφώσεις
 Ανεμος από Ν
Ανεμος: Ν 9 km/h
Θερμοκρασία: 15°C
Σημείο Δρόσου: 13°C
Υγρασία: 88%
Βαρόμετρο: 1022 hPa
Clouds: Αραιές Νεφώσεις
Visibility: 10 km
Cloud details: Αραιές Νεφώσεις 762 m
2021/10/21 20:20 LGIR 212020Z 17005KT 9999 FEW025 15/13 Q1022 NOSIG
 
LGMK - MIKONOS - GREECE
Ενημερώθηκε: 21/10/2021 23:20
Αίθριος
Αίθριος
 Ανεμος από calm
Ανεμος: Απνοια
Θερμοκρασία: 18°C
Σημείο Δρόσου: 11°C
Υγρασία: 64%
Βαρόμετρο: 1021 hPa
Περίληψη: Αίθριος
Visibility: greater than 10 km
2021/10/21 20:20 LGMK 212020Z 00000KT CAVOK 18/11 Q1021
LGKR - KERKIRA - GREECE
Ενημερώθηκε: 21/10/2021 23:20
Μερικώς νεφελώδης
Μερικώς νεφελώδης
 Ανεμος από calm
Ανεμος: Απνοια
Θερμοκρασία: 16°C
Σημείο Δρόσου: 14°C
Υγρασία: 88%
Βαρόμετρο: 1020 hPa
Clouds: Μερικώς νεφελώδης
Visibility: 10 km
Cloud details: Αραιές Νεφώσεις 518 m
Μερικώς νεφελώδης 610 m
2021/10/21 20:20 LGKR 212020Z 00000KT 9999 FEW017 SCT020 16/14 Q1020 NOSIG